Time;durP1;ratioP1;P1;durP2;ratioP2;P2;SDS_P1;SDS_P2;PMS_P1;PMS_P2;Temp;Humidity;BMP_temperature;BMP_pressure;BME280_temperature;BME280_humidity;BME280_pressure;Samples;Min_cycle;Max_cycle;Signal;HPM_P1;HPM_P2
2022/03/04 00:01:46;;;;;;;25.10;12.57;;;;;;;3.21;61.54;101971.25;5038864;28;20329;-74
2022/03/04 00:04:12;;;;;;;26.33;12.77;;;;;;;3.45;61.39;102007.00;5038505;28;20025;-71
2022/03/04 00:06:37;;;;;;;28.08;13.02;;;;;;;3.28;62.18;101998.81;5037283;28;20515;-72
2022/03/04 00:09:02;;;;;;;23.10;12.90;;;;;;;3.42;62.43;102013.13;5055185;28;20090;-72
2022/03/04 00:11:28;;;;;;;28.98;13.82;;;;;;;3.43;62.46;102004.56;5036523;28;20035;-72
2022/03/04 00:13:54;;;;;;;25.65;13.48;;;;;;;3.24;62.94;102010.16;5055344;28;20075;-71
2022/03/04 00:16:19;;;;;;;26.63;13.40;;;;;;;3.22;62.38;102000.97;5037134;28;20037;-72
2022/03/04 00:18:45;;;;;;;26.90;12.90;;;;;;;3.28;62.65;102009.03;5055051;28;20083;-70
2022/03/04 00:21:10;;;;;;;29.27;14.40;;;;;;;3.20;63.12;102015.59;5054945;28;20032;-71
2022/03/04 00:23:36;;;;;;;25.42;13.50;;;;;;;3.41;61.82;102016.63;5055021;28;20025;-72
2022/03/04 00:26:03;;;;;;;29.35;13.05;;;;;;;3.12;62.88;102011.84;5055068;28;20108;-72
2022/03/04 00:28:29;;;;;;;26.65;13.57;;;;;;;3.21;62.27;102012.13;5036993;28;20472;-72
2022/03/04 00:30:54;;;;;;;28.65;14.27;;;;;;;3.30;61.65;102008.91;5036876;28;20028;-72
2022/03/04 00:33:19;;;;;;;25.60;13.65;;;;;;;3.19;62.50;102014.78;5036967;28;20490;-72
2022/03/04 00:35:45;;;;;;;26.50;13.23;;;;;;;3.08;62.09;102020.66;5036786;28;20021;-72
2022/03/04 00:38:10;;;;;;;28.05;14.63;;;;;;;3.13;62.18;102017.75;5054618;28;20492;-72
2022/03/04 00:40:35;;;;;;;29.27;13.55;;;;;;;3.15;62.55;102018.47;5036768;28;20151;-72
2022/03/04 00:43:01;;;;;;;25.45;13.50;;;;;;;3.14;63.30;102024.50;5054633;28;20025;-72
2022/03/04 00:45:26;;;;;;;28.85;13.95;;;;;;;3.12;62.26;102026.34;5036781;28;20039;-73
2022/03/04 00:47:51;;;;;;;26.73;14.07;;;;;;;3.14;62.52;102029.63;5054496;28;20498;-72
2022/03/04 00:50:17;;;;;;;26.75;14.25;;;;;;;3.13;63.42;102027.97;5054375;28;20060;-72
2022/03/04 00:52:42;;;;;;;27.33;13.40;;;;;;;3.00;62.77;102020.38;5054569;28;20029;-72
2022/03/04 00:55:09;;;;;;;28.30;14.95;;;;;;;2.98;63.54;102023.94;5036510;28;20396;-71
2022/03/04 00:57:34;;;;;;;32.20;13.82;;;;;;;2.87;64.45;102025.50;5035445;28;20036;-72
2022/03/04 01:00:00;;;;;;;27.70;14.20;;;;;;;2.94;63.86;102018.25;5053467;28;20025;-72
2022/03/04 01:02:25;;;;;;;29.13;14.50;;;;;;;3.02;63.11;102015.13;5036013;28;20039;-72
2022/03/04 01:04:50;;;;;;;28.50;13.98;;;;;;;2.95;63.69;102009.66;5036368;28;20387;-72
2022/03/04 01:07:16;;;;;;;27.80;14.45;;;;;;;2.79;64.54;102017.56;5053078;28;20041;-72
2022/03/04 01:09:41;;;;;;;28.20;13.80;;;;;;;2.90;63.99;102009.16;5036182;28;20025;-72
2022/03/04 01:12:07;;;;;;;28.52;15.13;;;;;;;2.88;63.77;102003.34;5036141;28;20028;-72
2022/03/04 01:14:32;;;;;;;28.40;14.18;;;;;;;2.76;64.06;102007.53;5035296;28;20021;-72
2022/03/04 01:16:58;;;;;;;30.13;14.13;;;;;;;2.77;63.91;102010.94;5053481;28;20028;-72
2022/03/04 01:19:23;;;;;;;26.55;13.80;;;;;;;2.68;64.05;102020.84;5053745;28;20075;-72
2022/03/04 01:21:48;;;;;;;33.40;14.55;;;;;;;2.61;64.72;102006.06;5053811;28;20494;-71
2022/03/04 01:24:14;;;;;;;28.92;14.45;;;;;;;2.58;64.47;102012.19;5054067;28;20400;-71
2022/03/04 01:26:39;;;;;;;29.77;13.80;;;;;;;2.59;65.09;102020.66;5035538;28;20470;-72
2022/03/04 01:29:04;;;;;;;31.45;14.52;;;;;;;2.71;64.59;102015.53;5053919;28;20048;-71
2022/03/04 01:31:30;;;;;;;27.67;13.80;;;;;;;2.54;64.71;102015.88;5035842;28;20016;-72
2022/03/04 01:33:55;;;;;;;27.50;13.85;;;;;;;2.54;65.35;102013.31;5053682;28;20377;-71
2022/03/04 01:36:20;;;;;;;28.27;14.25;;;;;;;2.38;65.46;102015.25;5035759;28;20048;-72
2022/03/04 01:38:46;;;;;;;30.30;14.88;;;;;;;2.39;65.70;102007.53;5053494;28;20430;-72
2022/03/04 01:41:11;;;;;;;28.67;14.30;;;;;;;2.36;65.98;102019.66;5053555;28;20028;-71
2022/03/04 01:43:36;;;;;;;28.70;14.27;;;;;;;2.45;65.73;102009.66;5035664;28;20033;-71
2022/03/04 01:46:17;;;;;;;26.95;13.85;;;;;;;2.41;65.90;102003.09;5035742;28;20522;-71
2022/03/04 01:48:44;;;;;;;29.98;13.73;;;;;;;2.36;67.31;102017.09;5035552;28;20028;-71
2022/03/04 01:51:10;;;;;;;26.08;14.00;;;;;;;2.43;66.19;102005.56;5035437;28;20082;-70
2022/03/04 01:53:36;;;;;;;30.73;13.55;;;;;;;2.21;67.82;102007.00;5035457;28;20025;-71
2022/03/04 01:56:02;;;;;;;31.20;14.38;;;;;;;2.13;68.60;102000.78;5035409;28;20017;-71
2022/03/04 01:58:27;;;;;;;27.50;13.98;;;;;;;2.04;68.26;102007.28;5035368;28;20033;-71
2022/03/04 02:00:52;;;;;;;29.52;13.88;;;;;;;2.14;67.66;102008.34;5053298;28;20111;-71
2022/03/04 02:03:18;;;;;;;28.35;14.30;;;;;;;2.23;67.10;102010.28;5053229;28;20383;-70
2022/03/04 02:05:44;;;;;;;27.30;14.00;;;;;;;2.11;67.98;102010.28;5052951;28;20049;-71
2022/03/04 02:08:09;;;;;;;30.02;14.13;;;;;;;2.06;68.28;102010.56;5053142;28;20027;-71
2022/03/04 02:10:34;;;;;;;28.58;14.30;;;;;;;2.01;68.70;102008.34;5035213;28;20029;-71
2022/03/04 02:13:00;;;;;;;29.98;13.98;;;;;;;1.86;68.86;102016.97;5053201;28;20436;-71
2022/03/04 02:15:25;;;;;;;28.63;13.70;;;;;;;2.04;68.00;102004.75;5035133;28;20115;-72
2022/03/04 02:17:51;;;;;;;28.17;13.65;;;;;;;1.86;68.75;102004.22;5052649;28;20025;-71
2022/03/04 02:20:20;;;;;;;28.45;14.20;;;;;;;1.88;68.49;102004.13;5052888;28;20078;-72
2022/03/04 02:22:45;;;;;;;28.08;13.93;;;;;;;1.97;68.20;102001.78;5053069;28;20021;-71
2022/03/04 02:25:10;;;;;;;28.35;14.02;;;;;;;2.00;68.51;102010.97;5052901;28;20100;-71
2022/03/04 02:27:36;;;;;;;30.38;13.77;;;;;;;1.96;68.77;102004.47;5052782;28;20076;-72
2022/03/04 02:30:02;;;;;;;25.55;13.57;;;;;;;1.99;67.90;101996.59;5035168;28;20032;-71
2022/03/04 02:32:28;;;;;;;31.52;14.05;;;;;;;1.78;68.54;101994.56;5034933;28;20071;-71
2022/03/04 02:34:53;;;;;;;30.67;13.75;;;;;;;1.83;68.25;102008.72;5052860;28;20021;-71
2022/03/04 02:37:18;;;;;;;30.92;14.23;;;;;;;1.87;68.22;102010.97;5052830;28;20025;-71
2022/03/04 02:39:44;;;;;;;24.98;13.95;;;;;;;1.70;69.13;102012.06;5034792;28;20025;-71
2022/03/04 02:42:09;;;;;;;28.67;14.57;;;;;;;1.82;68.47;102013.00;5052658;28;20086;-71
2022/03/04 02:44:34;;;;;;;30.38;14.13;;;;;;;1.60;68.94;102007.66;5051320;28;20025;-72
2022/03/04 02:46:59;;;;;;;29.95;13.68;;;;;;;1.67;69.57;102004.63;5033082;28;20120;-74
2022/03/04 02:49:25;;;;;;;31.48;14.60;;;;;;;1.71;69.05;102000.94;5052668;28;20021;-74
2022/03/04 02:51:50;;;;;;;28.13;14.40;;;;;;;1.51;69.25;102004.78;5052734;28;20022;-74
2022/03/04 02:54:16;;;;;;;29.52;14.20;;;;;;;1.58;69.71;101998.38;5053165;28;20059;-74
2022/03/04 02:56:41;;;;;;;27.10;13.40;;;;;;;1.44;69.79;102007.78;5053094;28;20021;-73
2022/03/04 02:59:06;;;;;;;28.75;13.43;;;;;;;1.55;70.25;101996.03;5052797;28;20029;-73
2022/03/04 03:01:32;;;;;;;28.83;13.27;;;;;;;1.50;70.40;101997.25;5034736;28;20429;-74
2022/03/04 03:03:57;;;;;;;27.02;13.43;;;;;;;1.47;70.02;101995.69;5052643;28;20082;-74
2022/03/04 03:06:22;;;;;;;29.77;14.20;;;;;;;1.69;69.52;102004.50;5052476;28;20537;-74
2022/03/04 03:08:47;;;;;;;29.13;13.57;;;;;;;1.48;70.23;101994.78;5051921;28;20048;-74
2022/03/04 03:11:13;;;;;;;29.58;14.05;;;;;;;1.48;70.26;101994.78;5066335;28;20051;-74
2022/03/04 03:13:39;;;;;;;31.80;14.18;;;;;;;1.27;70.07;101970.69;5042387;28;20554;-74
2022/03/04 03:16:04;;;;;;;29.15;13.88;;;;;;;1.50;70.52;101992.97;5058729;28;20033;-74
2022/03/04 03:18:29;;;;;;;28.23;13.60;;;;;;;1.43;69.60;101968.78;5052759;28;20032;-74
2022/03/04 03:20:55;;;;;;;24.95;12.93;;;;;;;1.46;70.08;101995.78;5053009;28;20390;-74
2022/03/04 03:23:20;;;;;;;26.15;12.20;;;;;;;1.45;70.75;102000.06;5052596;28;20036;-74
2022/03/04 03:25:45;;;;;;;29.02;13.23;;;;;;;1.52;69.72;102001.28;5052542;28;20520;-74
2022/03/04 03:28:11;;;;;;;26.73;13.25;;;;;;;1.38;70.40;102003.91;5052544;28;20024;-75
2022/03/04 03:30:36;;;;;;;29.55;14.27;;;;;;;1.44;69.83;102002.69;5035709;28;20414;-73
2022/03/04 03:33:01;;;;;;;29.02;13.63;;;;;;;1.44;70.20;102011.19;5056000;28;20147;-74
2022/03/04 03:35:27;;;;;;;30.73;13.15;;;;;;;1.45;70.28;102017.09;5056863;28;20028;-73
2022/03/04 03:37:53;;;;;;;27.30;13.00;;;;;;;1.28;71.06;102011.31;5038127;28;20083;-73
2022/03/04 03:40:18;;;;;;;27.48;13.07;;;;;;;1.40;70.02;102017.38;5055918;28;20056;-74
2022/03/04 03:42:43;;;;;;;35.15;14.25;;;;;;;1.34;70.31;102010.94;5055740;28;20468;-74
2022/03/04 03:45:10;;;;;;;29.27;13.45;;;;;;;1.34;70.20;102018.56;5037870;28;20021;-75
2022/03/04 03:47:37;;;;;;;29.23;13.75;;;;;;;1.51;69.68;102016.69;5038009;28;20496;-75
2022/03/04 03:50:03;;;;;;;30.35;13.38;;;;;;;1.31;70.58;102013.66;5055733;28;20100;-75
2022/03/04 03:52:29;;;;;;;29.88;13.55;;;;;;;1.17;71.23;102006.06;5055662;28;20394;-74
2022/03/04 03:54:54;;;;;;;27.98;13.52;;;;;;;1.40;70.89;102016.56;5037676;28;20029;-75
2022/03/04 03:57:19;;;;;;;26.77;13.52;;;;;;;1.31;70.58;102015.41;5037967;28;20529;-75
2022/03/04 03:59:44;;;;;;;27.45;13.60;;;;;;;1.44;70.59;102021.38;5036788;28;20252;-75
2022/03/04 04:02:10;;;;;;;27.45;13.85;;;;;;;1.44;69.92;102031.56;5036487;28;20021;-75
2022/03/04 04:04:35;;;;;;;29.65;14.32;;;;;;;1.30;70.93;102031.63;5055497;28;20033;-73
2022/03/04 04:07:03;;;;;;;27.10;13.68;;;;;;;1.06;72.02;102023.75;5055230;28;20087;-75
2022/03/04 04:09:28;;;;;;;27.35;13.43;;;;;;;1.26;71.35;102023.31;5055395;28;20468;-73
2022/03/04 04:11:53;;;;;;;30.23;14.25;;;;;;;1.43;70.43;102037.56;5055735;28;20028;-74
2022/03/04 04:14:19;;;;;;;25.45;13.10;;;;;;;1.37;70.16;102020.09;5037649;28;20052;-74
2022/03/04 04:16:44;;;;;;;31.42;14.07;;;;;;;1.40;70.69;102029.28;5037366;28;20083;-71
2022/03/04 04:19:09;;;;;;;27.25;13.50;;;;;;;1.23;71.91;102027.78;5037232;28;20480;-71
2022/03/04 04:21:34;;;;;;;31.23;13.98;;;;;;;1.26;70.91;102022.50;5055102;28;20025;-71
2022/03/04 04:24:00;;;;;;;28.70;13.90;;;;;;;1.17;71.13;102023.09;5055083;28;20047;-71
2022/03/04 04:26:26;;;;;;;35.40;13.95;;;;;;;1.18;71.60;102023.00;5054866;28;20036;-71
2022/03/04 04:28:51;;;;;;;28.58;12.90;;;;;;;1.13;72.23;102022.47;5037025;28;20095;-71
2022/03/04 04:31:16;;;;;;;28.60;13.82;;;;;;;1.23;71.90;102028.59;5055044;28;20472;-71
2022/03/04 04:33:42;;;;;;;28.23;13.23;;;;;;;1.25;71.65;102028.53;5036963;28;20059;-71
2022/03/04 04:36:07;;;;;;;28.50;13.48;;;;;;;1.16;71.66;102014.63;5037001;28;20111;-72
2022/03/04 04:38:32;;;;;;;30.73;13.25;;;;;;;1.31;71.82;102028.94;5054549;28;20155;-71
2022/03/04 04:40:58;;;;;;;28.52;13.27;;;;;;;1.16;71.16;102022.28;5036573;28;20032;-71
2022/03/04 04:43:23;;;;;;;26.00;12.98;;;;;;;1.05;72.42;102020.38;5054631;28;20025;-72
2022/03/04 04:45:50;;;;;;;28.45;13.98;;;;;;;1.09;72.59;102024.41;5054664;28;20029;-71
2022/03/04 04:48:15;;;;;;;29.63;12.88;;;;;;;0.99;72.68;102019.94;5054589;28;20487;-71
2022/03/04 04:50:41;;;;;;;30.02;13.50;;;;;;;0.93;73.50;102025.41;5036685;28;20021;-71
2022/03/04 04:53:06;;;;;;;27.65;13.50;;;;;;;0.96;73.31;102025.22;5054452;28;20056;-73
2022/03/04 04:55:31;;;;;;;30.42;13.05;;;;;;;1.08;72.09;102016.84;5036491;28;20033;-72
2022/03/04 04:57:57;;;;;;;28.00;13.65;;;;;;;0.97;72.76;102014.94;5036684;28;20029;-72
2022/03/04 05:00:22;;;;;;;28.20;13.38;;;;;;;1.09;73.06;102016.75;5054364;28;20021;-72
2022/03/04 05:02:47;;;;;;;29.38;13.57;;;;;;;0.94;73.00;102024.50;5054333;28;20524;-72
2022/03/04 05:05:13;;;;;;;27.55;13.48;;;;;;;0.96;73.83;102017.59;5054082;28;20104;-72
2022/03/04 05:07:38;;;;;;;28.08;13.20;;;;;;;0.93;73.32;102013.50;5054263;28;20415;-72
2022/03/04 05:10:04;;;;;;;29.40;13.13;;;;;;;0.87;73.80;102014.69;5054362;28;20067;-72
2022/03/04 05:12:30;;;;;;;27.35;13.23;;;;;;;0.94;73.34;102019.41;5054095;28;20490;-72
2022/03/04 05:14:56;;;;;;;36.10;13.55;;;;;;;1.09;72.50;102024.41;5054119;28;20032;-72
2022/03/04 05:17:21;;;;;;;33.10;14.25;;;;;;;1.14;72.09;102026.63;5053986;28;20464;-72
2022/03/04 05:19:46;;;;;;;28.88;13.75;;;;;;;0.96;73.36;102023.50;5053939;28;20031;-72
2022/03/04 05:22:12;;;;;;;27.90;13.73;;;;;;;1.03;73.32;102029.03;5036085;28;20567;-72
2022/03/04 05:24:37;;;;;;;29.20;13.50;;;;;;;1.01;73.35;102023.22;5035929;28;20028;-72
2022/03/04 05:27:02;;;;;;;27.92;13.80;;;;;;;0.93;72.91;102023.69;5035925;28;20021;-72
2022/03/04 05:29:28;;;;;;;27.50;12.75;;;;;;;0.66;73.70;102029.53;5053853;28;20032;-72
2022/03/04 05:31:53;;;;;;;27.58;13.40;;;;;;;0.79;74.40;102031.34;5035925;28;20025;-72
2022/03/04 05:34:18;;;;;;;30.30;13.45;;;;;;;0.68;74.58;102035.34;5053795;28;20472;-72
2022/03/04 05:36:44;;;;;;;25.92;13.38;;;;;;;0.68;74.74;102034.53;5035625;28;20025;-72
2022/03/04 05:39:09;;;;;;;27.02;13.00;;;;;;;0.60;74.86;102039.25;5035619;28;20025;-73
2022/03/04 05:41:35;;;;;;;29.75;13.85;;;;;;;0.53;75.21;102053.25;5035709;28;20036;-72
2022/03/04 05:44:00;;;;;;;26.40;12.57;;;;;;;0.49;75.61;102044.16;5053661;28;20486;-72
2022/03/04 05:46:26;;;;;;;30.42;13.15;;;;;;;0.56;75.39;102050.53;5053376;28;20053;-72
2022/03/04 05:48:51;;;;;;;25.05;13.40;;;;;;;0.49;76.04;102046.69;5053572;28;20024;-72
2022/03/04 05:51:17;;;;;;;28.17;13.50;;;;;;;0.41;76.41;102042.88;5059976;28;20017;-71
2022/03/04 05:53:43;;;;;;;28.58;13.43;;;;;;;0.58;76.03;102046.97;5033984;28;20021;-72
2022/03/04 05:56:09;;;;;;;30.63;13.70;;;;;;;0.56;76.04;102045.44;5053254;28;20025;-72
2022/03/04 05:58:36;;;;;;;28.55;13.73;;;;;;;0.48;75.67;102053.50;5037876;28;20115;-71
2022/03/04 06:01:02;;;;;;;26.23;12.98;;;;;;;0.49;76.33;102056.88;5035493;28;20021;-72
2022/03/04 06:03:28;;;;;;;26.77;13.10;;;;;;;0.41;76.15;102054.78;5035338;28;20029;-71
2022/03/04 06:05:54;;;;;;;28.40;13.23;;;;;;;0.35;76.24;102060.22;5054035;28;20429;-72
2022/03/04 06:08:19;;;;;;;30.30;13.43;;;;;;;0.27;76.80;102055.59;5053117;28;20021;-71
2022/03/04 06:10:45;;;;;;;25.73;12.73;;;;;;;0.32;76.47;102061.22;5053252;28;20025;-72
2022/03/04 06:13:11;;;;;;;25.17;13.05;;;;;;;0.31;76.70;102063.84;5053222;28;20064;-72
2022/03/04 06:15:36;;;;;;;25.25;12.43;;;;;;;0.30;77.42;102068.13;5035308;28;20029;-73
2022/03/04 06:18:02;;;;;;;30.17;13.23;;;;;;;0.36;77.09;102067.75;5053004;28;20036;-71
2022/03/04 06:20:28;;;;;;;28.40;13.20;;;;;;;0.34;77.26;102071.28;5053102;28;20472;-71
2022/03/04 06:22:53;;;;;;;25.85;13.13;;;;;;;0.51;76.78;102072.88;5035142;28;20036;-71
2022/03/04 06:25:19;;;;;;;24.73;13.10;;;;;;;0.45;76.52;102066.41;5035194;28;20427;-71
2022/03/04 06:27:54;;;;;;;26.67;13.48;;;;;;;0.42;76.60;102077.56;5053196;28;20020;-72
2022/03/04 06:30:19;;;;;;;27.98;13.48;;;;;;;0.60;76.58;102073.13;5033856;28;20016;-72
2022/03/04 06:32:45;;;;;;;27.08;12.98;;;;;;;0.55;76.17;102076.88;5034996;28;20116;-71
2022/03/04 06:35:10;;;;;;;27.40;13.15;;;;;;;0.37;76.55;102077.00;5052936;28;20039;-72
2022/03/04 06:37:35;;;;;;;26.63;13.27;;;;;;;0.48;76.74;102085.75;5052874;28;20100;-72
2022/03/04 06:40:02;;;;;;;33.53;14.20;;;;;;;0.51;76.64;102085.59;5035019;28;20021;-73
2022/03/04 06:42:27;;;;;;;31.40;13.40;;;;;;;0.58;76.28;102087.69;5052858;28;20025;-72
2022/03/04 06:44:53;;;;;;;27.80;12.52;;;;;;;0.52;76.20;102094.84;5057619;28;20055;-73
2022/03/04 06:47:18;;;;;;;28.73;13.50;;;;;;;0.40;75.84;102058.22;5039032;28;20117;-75
2022/03/04 06:49:44;;;;;;;26.73;13.23;;;;;;;0.64;75.79;102099.22;5058932;28;20025;-74
2022/03/04 06:52:09;;;;;;;30.48;13.60;;;;;;;0.56;76.46;102099.66;5056299;28;20387;-74
2022/03/04 06:54:36;;;;;;;27.75;14.18;;;;;;;0.71;75.82;102085.22;5035902;28;20033;-71
2022/03/04 06:57:02;;;;;;;28.23;12.95;;;;;;;0.76;75.09;102092.59;5034560;28;20021;-71
2022/03/04 06:59:27;;;;;;;28.42;13.45;;;;;;;0.80;75.49;102099.94;5052423;28;20048;-71
2022/03/04 07:01:52;;;;;;;26.70;12.73;;;;;;;0.67;74.40;102071.06;5052642;28;20484;-71
2022/03/04 07:04:18;;;;;;;26.42;13.35;;;;;;;0.90;74.83;102093.41;5034400;28;20028;-71
2022/03/04 07:06:43;;;;;;;27.73;13.52;;;;;;;0.83;74.63;102098.94;5055072;28;20138;-72
2022/03/04 07:09:08;;;;;;;25.95;13.32;;;;;;;0.99;74.87;102103.97;5037864;28;20152;-71
2022/03/04 07:11:34;;;;;;;27.27;13.10;;;;;;;1.02;74.72;102104.59;5055807;28;20021;-72
2022/03/04 07:13:59;;;;;;;25.85;13.15;;;;;;;1.06;74.48;102108.56;5038265;28;20108;-71
2022/03/04 07:16:24;;;;;;;25.95;12.70;;;;;;;0.95;74.44;102115.22;5056185;28;20049;-71
2022/03/04 07:18:50;;;;;;;26.77;13.23;;;;;;;0.96;75.64;102121.97;5037919;28;20043;-72
2022/03/04 07:21:15;;;;;;;28.52;13.30;;;;;;;1.11;74.16;102121.03;5056048;28;20029;-72
2022/03/04 07:23:41;;;;;;;24.95;13.35;;;;;;;1.04;74.72;102132.50;5056072;28;20029;-72
2022/03/04 07:26:09;;;;;;;25.98;12.40;;;;;;;1.19;73.92;102118.03;5056284;28;20101;-75
2022/03/04 07:28:35;;;;;;;28.13;12.80;;;;;;;1.35;73.34;102126.34;5056446;28;20463;-71
2022/03/04 07:31:00;;;;;;;33.72;12.88;;;;;;;1.29;73.74;102121.66;5056076;28;20100;-72
2022/03/04 07:33:25;;;;;;;29.98;13.18;;;;;;;1.54;73.07;102121.78;5056484;28;20086;-71
2022/03/04 07:35:50;;;;;;;26.55;12.57;;;;;;;1.58;72.96;102122.41;5056517;28;20060;-71
2022/03/04 07:38:16;;;;;;;29.75;13.30;;;;;;;1.52;73.17;102125.31;5055961;28;20045;-72
2022/03/04 07:40:41;;;;;;;29.08;13.43;;;;;;;1.70;73.06;102121.66;5037789;28;20470;-72
2022/03/04 07:43:07;;;;;;;27.58;13.52;;;;;;;2.59;70.27;102130.38;5055943;28;20032;-71
2022/03/04 07:45:33;;;;;;;23.58;12.45;;;;;;;6.18;58.42;102119.28;5055929;28;20032;-72
2022/03/04 07:47:59;;;;;;;23.83;13.10;;;;;;;7.72;52.37;102128.50;5038042;28;20032;-71
2022/03/04 07:50:24;;;;;;;24.38;12.90;;;;;;;7.80;51.83;102122.69;5038107;28;20032;-72
2022/03/04 07:52:49;;;;;;;23.65;12.65;;;;;;;7.25;53.11;102125.75;5055943;28;20024;-72
2022/03/04 07:55:17;;;;;;;25.10;13.13;;;;;;;8.64;48.39;102119.44;5037933;28;20040;-72
2022/03/04 07:57:44;;;;;;;22.13;12.82;;;;;;;9.80;46.57;102128.25;5055698;28;20075;-72
2022/03/04 08:00:15;;;;;;;22.80;12.50;;;;;;;9.28;47.34;102121.16;5055510;28;20029;-72
2022/03/04 08:02:41;;;;;;;21.73;12.65;;;;;;;8.99;48.38;102124.69;5055881;28;20025;-72
2022/03/04 08:05:08;;;;;;;22.58;12.93;;;;;;;9.59;45.92;102121.63;5039061;28;20484;-73
2022/03/04 08:07:33;;;;;;;21.77;13.13;;;;;;;10.01;44.97;102127.94;5039722;28;20443;-73
2022/03/04 08:09:59;;;;;;;26.83;13.60;;;;;;;10.04;45.44;102122.47;5039824;28;20021;-73
2022/03/04 08:12:25;;;;;;;24.15;13.55;;;;;;;9.95;44.91;102124.16;5039791;28;20025;-73
2022/03/04 08:14:51;;;;;;;20.70;13.98;;;;;;;10.86;44.09;102121.19;5040014;28;20089;-72
2022/03/04 08:17:16;;;;;;;19.80;13.13;;;;;;;11.44;41.63;102122.16;5039122;28;20476;-72
2022/03/04 08:19:41;;;;;;;20.63;13.27;;;;;;;10.82;42.23;102131.03;5055962;28;20032;-72
2022/03/04 08:22:08;;;;;;;23.10;13.07;;;;;;;10.93;42.29;102129.13;5039371;28;20120;-72
2022/03/04 08:24:33;;;;;;;20.95;12.98;;;;;;;11.06;42.16;102130.31;5056934;28;20382;-73
2022/03/04 08:26:59;;;;;;;20.05;13.00;;;;;;;10.74;44.02;102131.00;5057149;28;20017;-72
2022/03/04 08:29:24;;;;;;;22.38;13.65;;;;;;;11.87;41.09;102135.81;5056986;28;20024;-72
2022/03/04 08:31:49;;;;;;;19.55;12.60;;;;;;;10.53;43.74;102135.72;5039256;28;20024;-72
2022/03/04 08:34:15;;;;;;;18.55;13.18;;;;;;;11.10;42.46;102138.56;5057366;28;20032;-74
2022/03/04 08:36:40;;;;;;;21.70;13.90;;;;;;;11.63;41.22;102142.56;5058576;28;20112;-72
2022/03/04 08:39:05;;;;;;;21.30;13.70;;;;;;;12.55;39.58;102145.75;5040376;28;20476;-73
2022/03/04 08:41:35;;;;;;;19.45;12.95;;;;;;;13.44;38.47;102146.34;5057825;28;20052;-72
2022/03/04 08:44:02;;;;;;;22.30;13.30;;;;;;;14.12;36.85;102146.44;5057038;28;20100;-72
2022/03/04 08:46:27;;;;;;;20.45;13.10;;;;;;;13.73;37.17;102145.66;5040073;28;20522;-72
2022/03/04 08:48:53;;;;;;;20.52;13.68;;;;;;;12.85;38.59;102151.16;5039716;28;20013;-72
2022/03/04 08:51:22;;;;;;;19.40;13.80;;;;;;;13.84;37.34;102152.22;5039086;28;20025;-73
2022/03/04 08:53:47;;;;;;;20.13;13.52;;;;;;;14.12;36.42;102147.25;5056007;28;20021;-73
2022/03/04 08:56:12;;;;;;;20.98;13.38;;;;;;;15.25;34.93;102145.34;5037782;28;20039;-73
2022/03/04 08:58:38;;;;;;;26.17;13.40;;;;;;;15.60;33.71;102148.09;5055865;28;20021;-73
2022/03/04 09:01:03;;;;;;;17.83;13.30;;;;;;;15.35;34.08;102143.22;5056315;28;20033;-73
2022/03/04 09:03:28;;;;;;;20.80;13.77;;;;;;;16.32;33.37;102147.06;5057724;28;20045;-73
2022/03/04 09:05:54;;;;;;;20.70;13.10;;;;;;;15.09;34.10;102151.56;5060465;28;20080;-75
2022/03/04 09:08:19;;;;;;;18.77;13.13;;;;;;;17.09;32.08;102152.03;5059459;28;20461;-72
2022/03/04 09:10:45;;;;;;;23.50;13.55;;;;;;;17.41;31.69;102141.88;5038209;28;20041;-73
2022/03/04 09:13:10;;;;;;;20.00;13.52;;;;;;;16.88;31.41;102146.94;5038486;28;20032;-73
2022/03/04 09:15:35;;;;;;;19.40;13.55;;;;;;;15.49;32.81;102138.97;5056094;28;20037;-72
2022/03/04 09:18:00;;;;;;;17.05;13.50;;;;;;;15.51;32.18;102148.22;5056028;28;20075;-72
2022/03/04 09:20:26;;;;;;;18.30;13.25;;;;;;;16.34;30.60;102145.88;5036025;28;20116;-72
2022/03/04 09:22:52;;;;;;;22.65;13.50;;;;;;;15.26;32.46;102160.78;5054178;28;20017;-72
2022/03/04 09:25:18;;;;;;;18.33;13.25;;;;;;;15.90;31.75;102143.53;5054070;28;20024;-73
2022/03/04 09:27:46;;;;;;;19.40;13.07;;;;;;;16.34;30.85;102137.22;5053405;28;20052;-73
2022/03/04 09:30:11;;;;;;;24.42;13.32;;;;;;;16.65;30.21;102153.22;5053844;28;20021;-73
2022/03/04 09:32:38;;;;;;;16.15;12.70;;;;;;;16.01;30.99;102149.03;5035883;28;20029;-73
2022/03/04 09:35:05;;;;;;;17.85;13.05;;;;;;;17.75;28.49;102126.97;5035996;28;20450;-73
2022/03/04 09:37:30;;;;;;;18.70;12.80;;;;;;;18.82;26.32;102144.13;5035736;28;20029;-73
2022/03/04 09:39:56;;;;;;;19.55;12.23;;;;;;;17.54;28.46;102130.59;5053338;28;20455;-74
2022/03/04 09:42:22;;;;;;;15.18;12.10;;;;;;;18.34;27.12;102157.53;5053565;28;20025;-72
2022/03/04 09:44:47;;;;;;;19.42;12.38;;;;;;;18.24;27.75;102144.06;5053445;28;20464;-72
2022/03/04 09:47:19;;;;;;;16.33;12.63;;;;;;;19.24;27.11;102146.28;5034447;28;20024;-73
2022/03/04 09:49:45;;;;;;;21.27;12.75;;;;;;;20.50;25.14;102137.31;5035457;28;20049;-74
2022/03/04 09:52:11;;;;;;;18.13;12.27;;;;;;;20.02;24.77;102138.84;5053394;28;20484;-73
2022/03/04 09:54:36;;;;;;;17.98;13.18;;;;;;;19.40;25.73;102137.94;5053135;28;20094;-72
2022/03/04 09:57:02;;;;;;;18.25;12.27;;;;;;;19.91;24.39;102138.75;5035287;28;20108;-72
2022/03/04 09:59:27;;;;;;;21.77;17.02;;;;;;;17.91;26.78;102141.50;5052868;28;20074;-74
2022/03/04 10:01:53;;;;;;;19.95;13.02;;;;;;;16.61;28.22;102133.75;5053399;28;20028;-72
2022/03/04 10:04:18;;;;;;;17.10;12.73;;;;;;;17.74;27.30;102128.00;5053197;28;20029;-72
2022/03/04 10:06:49;;;;;;;17.60;12.80;;;;;;;19.15;24.69;102122.97;5053085;28;20052;-73
2022/03/04 10:09:50;;;;;;;17.35;12.57;;;;;;;19.96;24.13;102139.69;5035310;28;20025;-72
2022/03/04 10:12:19;;;;;;;17.17;12.88;;;;;;;18.14;25.82;102131.41;5050599;28;20028;-72
2022/03/04 10:15:06;;;;;;;20.60;13.05;;;;;;;17.70;26.56;102138.06;5033379;28;20029;-72
2022/03/04 10:17:33;;;;;;;19.60;13.45;;;;;;;17.34;27.30;102136.59;5033274;28;20405;-73
2022/03/04 10:20:01;;;;;;;21.52;13.40;;;;;;;17.00;27.38;102144.56;5033043;28;20036;-72
2022/03/04 10:22:42;;;;;;;21.30;13.70;;;;;;;18.00;25.90;102142.91;5049933;28;20178;-73
2022/03/04 10:25:21;;;;;;;25.17;14.43;;;;;;;18.27;26.32;102130.59;5050918;28;20021;-72
2022/03/04 10:27:47;;;;;;;20.48;13.20;;;;;;;17.96;26.42;102132.03;5051331;28;20036;-73
2022/03/04 10:30:15;;;;;;;19.75;13.82;;;;;;;16.21;28.78;102133.53;5033358;28;20333;-71
2022/03/04 10:32:40;;;;;;;29.65;13.73;;;;;;;17.00;28.72;102132.31;5051093;28;20112;-71
2022/03/04 10:35:08;;;;;;;23.42;13.48;;;;;;;16.32;29.11;102132.19;5051326;28;20108;-72
2022/03/04 10:37:46;;;;;;;20.75;13.38;;;;;;;13.75;32.71;102122.91;5051187;28;20029;-72
2022/03/04 10:40:16;;;;;;;24.30;13.07;;;;;;;13.19;34.22;102122.28;5054182;28;20112;-72
2022/03/04 10:42:49;;;;;;;21.38;13.38;;;;;;;12.94;34.72;102113.00;5056933;28;20029;-73
2022/03/04 10:45:20;;;;;;;20.73;13.68;;;;;;;12.67;35.31;102109.09;5057167;28;20028;-71
2022/03/04 10:47:52;;;;;;;23.85;13.30;;;;;;;12.40;35.93;102109.34;5056923;28;20112;-72
2022/03/04 10:50:27;;;;;;;22.75;13.55;;;;;;;11.63;37.32;102113.28;5055141;28;20387;-71
2022/03/04 10:52:58;;;;;;;23.48;13.45;;;;;;;11.98;37.66;102103.59;5037762;28;20021;-72
2022/03/04 10:55:29;;;;;;;22.45;13.70;;;;;;;11.74;38.23;102110.38;5037516;28;20119;-72
2022/03/04 10:57:55;;;;;;;21.95;13.23;;;;;;;11.42;38.11;102095.59;5055562;28;20032;-69
2022/03/04 11:00:28;;;;;;;28.27;14.50;;;;;;;11.85;38.39;102104.88;5039099;28;20025;-71
2022/03/04 11:02:54;;;;;;;21.15;13.38;;;;;;;11.99;37.52;102094.81;5057252;28;20431;-70
2022/03/04 11:05:21;;;;;;;22.02;13.57;;;;;;;12.49;37.36;102096.34;5038243;28;20053;-71
2022/03/04 11:07:47;;;;;;;22.60;13.68;;;;;;;12.47;37.97;102096.50;5056220;28;20116;-71
2022/03/04 11:10:13;;;;;;;21.10;13.68;;;;;;;12.56;37.47;102100.69;5037913;28;20115;-72